Time,TemperatureF,DewpointF,PressureIn,WindDirection,WindDirectionDegrees,WindSpeedMPH,WindSpeedGustMPH,Humidity,HourlyPrecipIn,Conditions,Clouds,dailyrainin,SoftwareType,DateUTC
2013-09-24 00:14:00,47.0,40.0,29.96,NNW,327,4.0,10.0,77,0.00,,,0.00,,2013-09-24 04:14:00,
2013-09-24 00:24:00,47.0,41.0,29.95,West,270,5.0,14.0,78,0.00,,,0.00,,2013-09-24 04:24:00,
2013-09-24 00:44:00,47.0,41.0,29.95,NW,310,6.0,16.0,78,0.00,,,0.00,,2013-09-24 04:44:00,
2013-09-24 00:54:00,47.0,41.0,29.94,West,268,6.0,13.0,78,0.00,,,0.00,,2013-09-24 04:54:00,
2013-09-24 01:13:00,47.0,41.0,29.94,NW,310,4.0,14.0,79,0.00,,,0.00,,2013-09-24 05:13:00,
2013-09-24 01:23:00,47.0,41.0,29.95,WNW,291,4.0,13.0,79,0.00,,,0.00,,2013-09-24 05:23:00,
2013-09-24 01:53:00,47.0,41.0,29.94,WNW,299,4.0,13.0,79,0.00,,,0.00,,2013-09-24 05:53:00,
2013-09-24 02:13:00,47.0,41.0,29.94,WNW,303,4.0,12.0,79,0.00,,,0.00,,2013-09-24 06:13:00,
2013-09-24 02:22:00,47.0,41.0,29.94,NW,315,2.0,11.0,80,0.00,,,0.00,,2013-09-24 06:22:00,
2013-09-24 02:42:00,47.0,41.0,29.93,West,276,3.0,7.0,81,0.00,,,0.00,,2013-09-24 06:42:00,
2013-09-24 02:52:00,47.0,41.0,29.93,WNW,297,5.0,12.0,80,0.00,,,0.00,,2013-09-24 06:52:00,
2013-09-24 03:12:00,46.0,40.0,29.93,WNW,297,4.0,11.0,80,0.00,,,0.00,,2013-09-24 07:12:00,
2013-09-24 03:22:00,46.0,40.0,29.93,NW,310,6.0,17.0,79,0.00,,,0.00,,2013-09-24 07:22:00,
2013-09-24 03:43:00,46.0,40.0,29.93,NW,321,3.0,13.0,79,0.00,,,0.00,,2013-09-24 07:43:00,
2013-09-24 03:52:00,46.0,40.0,29.92,WNW,303,4.0,12.0,80,0.00,,,0.00,,2013-09-24 07:52:00,
2013-09-24 04:11:00,46.0,41.0,29.92,WNW,293,5.0,13.0,81,0.00,,,0.00,,2013-09-24 08:11:00,
2013-09-24 04:23:00,45.0,40.0,29.92,NW,311,4.0,9.0,83,0.00,,,0.00,,2013-09-24 08:23:00,
2013-09-24 04:42:00,45.0,40.0,29.92,WNW,287,3.0,13.0,84,0.00,,,0.00,,2013-09-24 08:42:00,
2013-09-24 04:52:00,45.0,40.0,29.91,WNW,303,6.0,14.0,84,0.00,,,0.00,,2013-09-24 08:52:00,
2013-09-24 05:12:00,45.0,40.0,29.91,NW,314,6.0,14.0,83,0.00,,,0.00,,2013-09-24 09:12:00,
2013-09-24 05:21:00,45.0,40.0,29.91,WNW,291,4.0,13.0,83,0.00,,,0.00,,2013-09-24 09:21:00,
2013-09-24 05:43:00,45.0,40.0,29.91,NNW,327,4.0,15.0,81,0.00,,,0.00,,2013-09-24 09:43:00,
2013-09-24 05:53:00,44.0,39.0,29.91,WNW,285,2.0,6.0,83,0.00,,,0.00,,2013-09-24 09:53:00,
2013-09-24 06:13:00,44.0,39.0,29.91,NW,308,3.0,8.0,84,0.00,,,0.00,,2013-09-24 10:13:00,
2013-09-24 06:23:00,44.0,39.0,29.91,NW,310,5.0,12.0,83,0.00,,,0.00,,2013-09-24 10:23:00,
2013-09-24 06:42:00,44.0,39.0,29.91,NW,324,3.0,12.0,83,0.00,,,0.00,,2013-09-24 10:42:00,
2013-09-24 06:53:00,43.0,39.0,29.92,WNW,301,2.0,6.0,85,0.00,,,0.00,,2013-09-24 10:53:00,
2013-09-24 07:11:00,43.0,39.0,29.91,WNW,289,3.0,8.0,85,0.00,,,0.00,,2013-09-24 11:11:00,
2013-09-24 07:22:00,44.0,40.0,29.91,WNW,302,3.0,9.0,85,0.00,,,0.00,,2013-09-24 11:22:00,
2013-09-24 07:52:00,44.0,40.0,29.90,West,266,1.0,6.0,86,0.00,,,0.00,,2013-09-24 11:52:00,
2013-09-24 08:12:00,44.0,40.0,29.90,West,264,1.0,5.0,86,0.00,,,0.00,,2013-09-24 12:12:00,
2013-09-24 08:22:00,45.0,41.0,29.89,WNW,282,1.0,9.0,85,0.00,,,0.00,,2013-09-24 12:22:00,
2013-09-24 08:42:00,45.0,40.0,29.89,West,272,0.0,9.0,84,0.00,,,0.00,,2013-09-24 12:42:00,
2013-09-24 08:52:00,45.0,41.0,29.89,WNW,291,2.0,4.0,85,0.00,,,0.00,,2013-09-24 12:52:00,
2013-09-24 09:11:00,46.0,42.0,29.89,WNW,285,1.0,9.0,85,0.00,,,0.00,,2013-09-24 13:11:00,
2013-09-24 09:22:00,46.0,41.0,29.88,NW,305,2.0,9.0,81,0.00,,,0.00,,2013-09-24 13:22:00,
2013-09-24 09:42:00,47.0,41.0,29.88,WNW,296,2.0,10.0,81,0.00,,,0.00,,2013-09-24 13:42:00,
2013-09-24 09:52:00,47.0,41.0,29.89,NNW,345,4.0,10.0,80,0.00,,,0.00,,2013-09-24 13:52:00,
2013-09-24 10:12:00,47.0,41.0,29.90,WNW,296,3.0,9.0,81,0.00,,,0.00,,2013-09-24 14:12:00,
2013-09-24 10:21:00,47.0,40.0,29.90,NW,308,6.0,18.0,77,0.00,,,0.00,,2013-09-24 14:21:00,
2013-09-24 10:42:00,47.0,41.0,29.90,West,280,4.0,13.0,79,0.00,,,0.00,,2013-09-24 14:42:00,
2013-09-24 10:52:00,45.0,42.0,29.90,NW,308,4.0,13.0,88,0.01,,,0.01,,2013-09-24 14:52:00,
2013-09-24 11:11:00,45.0,43.0,29.90,NW,308,4.0,8.0,91,0.02,,,0.02,,2013-09-24 15:11:00,
2013-09-24 11:22:00,44.0,42.0,29.90,NW,308,3.0,9.0,93,0.04,,,0.04,,2013-09-24 15:22:00,
2013-09-24 11:43:00,44.0,42.0,29.90,WNW,298,4.0,8.0,94,0.06,,,0.06,,2013-09-24 15:43:00,
2013-09-24 11:53:00,45.0,43.0,29.89,NW,308,5.0,13.0,94,0.05,,,0.06,,2013-09-24 15:53:00,
2013-09-24 12:13:00,45.0,43.0,29.88,NNW,346,3.0,10.0,94,0.04,,,0.06,,2013-09-24 16:13:00,
2013-09-24 12:23:00,45.0,43.0,29.88,WNW,291,6.0,12.0,93,0.02,,,0.06,,2013-09-24 16:23:00,
2013-09-24 12:43:00,45.0,43.0,29.88,NW,326,7.0,16.0,93,0.00,,,0.06,,2013-09-24 16:43:00,
2013-09-24 12:53:00,45.0,43.0,29.88,NNE,14,5.0,12.0,94,0.00,,,0.06,,2013-09-24 16:53:00,
2013-09-24 13:13:00,45.0,43.0,29.88,NNW,342,6.0,13.0,93,0.00,,,0.06,,2013-09-24 17:13:00,
2013-09-24 13:23:00,46.0,44.0,29.88,NW,322,4.0,16.0,93,0.00,,,0.06,,2013-09-24 17:23:00,
2013-09-24 13:54:00,46.0,43.0,29.86,NNW,328,10.0,25.0,88,0.01,,,0.07,,2013-09-24 17:54:00,
2013-09-24 14:12:00,47.0,44.0,29.87,WNW,293,5.0,14.0,89,0.01,,,0.07,,2013-09-24 18:12:00,
2013-09-24 14:22:00,48.0,44.0,29.86,SW,230,7.0,22.0,85,0.01,,,0.07,,2013-09-24 18:22:00,
2013-09-24 14:52:00,48.0,43.0,29.87,NNW,339,6.0,15.0,83,0.00,,,0.07,,2013-09-24 18:52:00,
2013-09-24 15:12:00,48.0,43.0,29.88,WNW,298,6.0,15.0,83,0.00,,,0.07,,2013-09-24 19:12:00,
2013-09-24 15:22:00,48.0,42.0,29.88,NNW,343,7.0,14.0,81,0.00,,,0.07,,2013-09-24 19:22:00,
2013-09-24 15:52:00,49.0,43.0,29.88,NW,309,4.0,16.0,81,0.00,,,0.07,,2013-09-24 19:52:00,
2013-09-24 16:12:00,49.0,43.0,29.88,WNW,296,4.0,16.0,80,0.00,,,0.07,,2013-09-24 20:12:00,
2013-09-24 16:22:00,49.0,43.0,29.88,WNW,298,5.0,15.0,81,0.00,,,0.07,,2013-09-24 20:22:00,
2013-09-24 16:42:00,49.0,43.0,29.88,NW,323,4.0,18.0,81,0.00,,,0.07,,2013-09-24 20:42:00,
2013-09-24 16:52:00,49.0,43.0,29.88,NW,321,5.0,20.0,80,0.00,,,0.07,,2013-09-24 20:52:00,
2013-09-24 17:12:00,48.0,42.0,29.89,West,280,3.0,12.0,80,0.00,,,0.07,,2013-09-24 21:12:00,
2013-09-24 17:22:00,48.0,42.0,29.89,WNW,303,4.0,13.0,81,0.00,,,0.07,,2013-09-24 21:22:00,
2013-09-24 17:43:00,48.0,43.0,29.89,NW,308,2.0,11.0,82,0.00,,,0.07,,2013-09-24 21:43:00,
2013-09-24 17:54:00,48.0,43.0,29.89,WNW,295,4.0,11.0,82,0.00,,,0.07,,2013-09-24 21:54:00,
2013-09-24 18:13:00,48.0,42.0,29.90,NW,308,5.0,16.0,81,0.00,,,0.07,,2013-09-24 22:13:00,
2013-09-24 18:23:00,47.0,42.0,29.90,NW,305,4.0,15.0,82,0.00,,,0.07,,2013-09-24 22:23:00,
2013-09-24 18:53:00,47.0,42.0,29.91,NW,311,6.0,17.0,82,0.00,,,0.07,,2013-09-24 22:53:00,
2013-09-24 19:13:00,47.0,42.0,29.91,NNW,335,4.0,11.0,83,0.00,,,0.07,,2013-09-24 23:13:00,
2013-09-24 19:22:00,47.0,42.0,29.91,WNW,290,6.0,15.0,83,0.00,,,0.07,,2013-09-24 23:22:00,
2013-09-24 19:53:00,47.0,42.0,29.91,NW,309,6.0,14.0,83,0.00,,,0.07,,2013-09-24 23:53:00,
2013-09-24 20:12:00,47.0,42.0,29.91,WNW,290,5.0,14.0,84,0.00,,,0.07,,2013-09-25 00:12:00,
2013-09-24 20:22:00,47.0,42.0,29.91,NW,316,6.0,15.0,84,0.00,,,0.07,,2013-09-25 00:22:00,
2013-09-24 20:42:00,47.0,42.0,29.91,NW,322,7.0,17.0,83,0.00,,,0.07,,2013-09-25 00:42:00,
2013-09-24 20:52:00,47.0,42.0,29.91,WNW,284,5.0,14.0,84,0.00,,,0.07,,2013-09-25 00:52:00,
2013-09-24 21:12:00,47.0,42.0,29.91,NW,308,5.0,12.0,84,0.00,,,0.07,,2013-09-25 01:12:00,
2013-09-24 21:21:00,47.0,43.0,29.91,West,278,5.0,11.0,85,0.00,,,0.07,,2013-09-25 01:21:00,
2013-09-24 21:42:00,47.0,43.0,29.91,WNW,294,5.0,13.0,85,0.00,,,0.07,,2013-09-25 01:42:00,
2013-09-24 21:52:00,47.0,43.0,29.91,NW,314,5.0,18.0,85,0.00,,,0.07,,2013-09-25 01:52:00,
2013-09-24 22:12:00,47.0,43.0,29.91,WNW,301,5.0,18.0,85,0.00,,,0.07,,2013-09-25 02:12:00,
2013-09-24 22:22:00,46.0,42.0,29.91,NW,318,5.0,14.0,86,0.00,,,0.07,,2013-09-25 02:22:00,
2013-09-24 22:42:00,46.0,42.0,29.91,WNW,298,7.0,16.0,86,0.00,,,0.07,,2013-09-25 02:42:00,
2013-09-24 22:52:00,46.0,42.0,29.91,NW,308,6.0,15.0,86,0.00,,,0.07,,2013-09-25 02:52:00,
2013-09-24 23:11:00,46.0,42.0,29.91,North,354,6.0,15.0,87,0.00,,,0.07,,2013-09-25 03:11:00,
2013-09-24 23:23:00,46.0,42.0,29.91,WNW,298,6.0,14.0,87,0.00,,,0.07,,2013-09-25 03:23:00,
2013-09-24 23:45:00,46.0,42.0,29.91,NW,305,6.0,15.0,87,0.00,,,0.07,,2013-09-25 03:45:00,
2013-09-24 23:54:00,45.0,42.0,29.91,WNW,288,6.0,16.0,88,0.00,,,0.07,,2013-09-25 03:54:00,